createdAt,value
2019-03-11T00:03:40.140Z,6.22
2019-03-11T00:06:28.943Z,6.23
2019-03-11T00:12:12.769Z,6.21
2019-03-11T00:15:01.581Z,6.30
2019-03-11T00:17:50.366Z,6.21
2019-03-11T00:20:39.176Z,6.51
2019-03-11T00:23:27.974Z,6.23
2019-03-11T00:26:09.908Z,6.55
2019-03-11T00:28:58.722Z,6.65
2019-03-11T00:31:47.514Z,6.59
2019-03-11T00:34:36.377Z,6.43
2019-03-11T00:37:25.219Z,6.67
2019-03-11T00:40:34.962Z,5.93
2019-03-11T00:43:23.760Z,6.73
2019-03-11T00:46:20.041Z,6.57
2019-03-11T00:49:08.837Z,6.43
2019-03-11T00:51:57.655Z,6.64
2019-03-11T00:54:46.455Z,6.40
2019-03-11T00:57:35.275Z,6.50
2019-03-11T01:00:43.575Z,6.38
2019-03-11T01:03:32.694Z,6.78
2019-03-11T01:06:21.506Z,6.59
2019-03-11T01:09:10.619Z,5.17
2019-03-11T01:11:59.412Z,6.42
2019-03-11T01:17:43.035Z,6.53
2019-03-11T01:20:25.012Z,6.52
2019-03-11T01:23:13.833Z,6.67
2019-03-11T01:26:02.638Z,5.05
2019-03-11T01:28:51.457Z,6.76
2019-03-11T01:31:40.255Z,6.74
2019-03-11T01:34:29.080Z,6.69
2019-03-11T01:37:17.875Z,6.75
2019-03-11T01:40:26.010Z,6.83
2019-03-11T01:43:14.804Z,5.57
2019-03-11T01:46:03.623Z,7.08
2019-03-11T01:48:52.424Z,6.87
2019-03-11T01:54:35.878Z,6.92
2019-03-11T01:57:24.673Z,7.18
2019-03-11T02:00:34.398Z,6.95
2019-03-11T02:03:23.209Z,6.48
2019-03-11T02:06:12.047Z,6.63
2019-03-11T02:09:00.850Z,6.66
2019-03-11T02:11:49.669Z,6.65
2019-03-11T02:14:38.467Z,6.46
2019-03-11T02:17:27.576Z,6.40
2019-03-11T02:20:10.944Z,6.37
2019-03-11T02:22:59.763Z,5.97
2019-03-11T02:25:48.556Z,6.49
2019-03-11T02:28:37.374Z,5.02
2019-03-11T02:31:26.161Z,6.45
2019-03-11T02:34:14.981Z,6.47
2019-03-11T02:37:03.799Z,6.24
2019-03-11T02:39:52.599Z,4.31
2019-03-11T02:42:41.414Z,6.05
2019-03-11T02:45:30.536Z,5.93
2019-03-11T02:48:19.334Z,6.14
2019-03-11T02:51:27.245Z,5.08
2019-03-11T02:53:56.698Z,6.08
2019-03-11T02:56:26.149Z,6.04
2019-03-11T02:59:14.969Z,6.19
2019-03-11T03:02:22.799Z,6.42
2019-03-11T03:05:30.717Z,6.62
2019-03-11T03:08:19.550Z,6.04
2019-03-11T03:11:08.353Z,6.22
2019-03-11T03:13:57.158Z,6.03
2019-03-11T03:16:45.952Z,6.41
2019-03-11T03:19:34.768Z,6.23
2019-03-11T03:22:16.462Z,6.37
2019-03-11T03:25:33.602Z,6.11
2019-03-11T03:28:09.638Z,5.30
2019-03-11T03:30:58.567Z,6.09
2019-03-11T03:33:47.472Z,6.05
2019-03-11T03:36:36.334Z,5.95
2019-03-11T03:39:25.183Z,6.04
2019-03-11T03:42:14.072Z,6.29
2019-03-11T03:45:22.831Z,6.37
2019-03-11T03:48:11.727Z,6.40
2019-03-11T03:51:00.549Z,6.29
2019-03-11T03:56:44.342Z,6.40
2019-03-11T03:59:33.155Z,6.34
2019-03-11T04:02:21.950Z,6.55
2019-03-11T04:08:26.539Z,6.63
2019-03-11T04:11:15.336Z,6.58
2019-03-11T04:14:04.165Z,6.21
2019-03-11T04:16:52.986Z,6.14
2019-03-11T04:19:41.804Z,6.08
2019-03-11T04:22:23.297Z,6.17
2019-03-11T04:25:31.182Z,6.31
2019-03-11T04:28:20.006Z,6.10
2019-03-11T04:31:08.792Z,5.77
2019-03-11T04:33:57.615Z,5.30
2019-03-11T04:36:46.404Z,6.27
2019-03-11T04:39:35.542Z,6.18
2019-03-11T04:42:24.333Z,6.09
2019-03-11T04:45:32.470Z,6.18
2019-03-11T04:48:21.568Z,6.42
2019-03-11T04:51:10.386Z,5.99
2019-03-11T04:57:06.979Z,5.93
2019-03-11T04:59:55.799Z,6.35
2019-03-11T05:02:44.670Z,6.40
2019-03-11T05:05:33.603Z,6.03
2019-03-11T05:08:22.477Z,6.24
2019-03-11T05:11:11.301Z,6.26
2019-03-11T05:14:00.446Z,6.10
2019-03-11T05:19:56.988Z,5.79
2019-03-11T05:22:45.850Z,5.84
2019-03-11T05:25:34.663Z,5.86
2019-03-11T05:28:16.014Z,5.98
2019-03-11T05:31:04.808Z,5.90
2019-03-11T05:34:12.699Z,4.33
2019-03-11T05:37:01.513Z,5.79
2019-03-11T05:39:50.305Z,5.85
2019-03-11T05:42:39.128Z,5.94
2019-03-11T05:45:27.945Z,6.12
2019-03-11T05:48:16.760Z,5.97
2019-03-11T05:51:05.554Z,6.02
2019-03-11T05:53:54.503Z,6.05
2019-03-11T05:59:51.051Z,5.93
2019-03-11T06:02:39.856Z,5.73
2019-03-11T06:05:28.664Z,5.96
2019-03-11T06:08:36.787Z,6.15
2019-03-11T06:11:25.599Z,5.95
2019-03-11T06:14:14.393Z,6.21
2019-03-11T06:17:03.213Z,5.96
2019-03-11T06:22:40.615Z,5.66
2019-03-11T06:25:29.420Z,5.90
2019-03-11T06:28:37.253Z,5.95
2019-03-11T06:31:26.055Z,5.88
2019-03-11T06:33:55.529Z,6.11
2019-03-11T06:36:44.342Z,6.01
2019-03-11T06:39:33.139Z,5.92
2019-03-11T06:42:21.964Z,5.63
2019-03-11T06:45:31.678Z,5.53
2019-03-11T06:51:14.927Z,6.35
2019-03-11T06:54:03.771Z,6.59
2019-03-11T06:56:52.868Z,5.31
2019-03-11T06:59:41.681Z,6.96
2019-03-11T07:02:30.489Z,5.49
2019-03-11T07:05:20.950Z,7.10
2019-03-11T07:08:09.821Z,6.85
2019-03-11T07:10:58.638Z,6.45
2019-03-11T07:13:47.433Z,6.65
2019-03-11T07:16:36.247Z,6.43
2019-03-11T07:19:25.066Z,6.50
2019-03-11T07:22:14.707Z,6.76
2019-03-11T07:24:57.763Z,5.63
2019-03-11T07:27:46.617Z,6.62
2019-03-11T07:30:35.438Z,6.99
2019-03-11T07:33:24.246Z,6.54
2019-03-11T07:36:13.068Z,6.61
2019-03-11T07:39:01.856Z,6.82
2019-03-11T07:41:50.672Z,6.87
2019-03-11T07:44:39.470Z,7.20
2019-03-11T07:47:28.286Z,6.08
2019-03-11T07:50:17.568Z,6.38
2019-03-11T07:53:06.456Z,5.76
2019-03-11T07:55:55.252Z,5.93
2019-03-11T07:58:44.068Z,4.18
2019-03-11T08:01:32.876Z,5.96
2019-03-11T08:04:21.683Z,4.19
2019-03-11T08:07:10.476Z,6.22
2019-03-11T08:09:59.295Z,4.28
2019-03-11T08:12:48.113Z,5.72
2019-03-11T08:15:36.902Z,5.96
2019-03-11T08:18:34.386Z,5.83
2019-03-11T08:21:16.252Z,5.56
2019-03-11T08:24:05.056Z,5.89
2019-03-11T08:26:53.867Z,5.65
2019-03-11T08:29:42.660Z,4.23
2019-03-11T08:32:31.477Z,6.01
2019-03-11T08:35:20.268Z,6.18
2019-03-11T08:38:09.078Z,6.29
2019-03-11T08:40:57.951Z,4.32
2019-03-11T08:43:46.759Z,6.18
2019-03-11T08:46:35.556Z,6.63
2019-03-11T08:49:24.395Z,6.37
2019-03-11T08:55:21.182Z,6.54
2019-03-11T08:58:09.979Z,6.42
2019-03-11T09:00:58.801Z,6.43
2019-03-11T09:04:06.710Z,6.22
2019-03-11T09:06:55.500Z,6.43
2019-03-11T09:09:44.314Z,7.21
2019-03-11T09:12:33.124Z,6.01
2019-03-11T09:15:22.160Z,7.56
2019-03-11T09:18:10.974Z,7.54
2019-03-11T09:20:59.767Z,7.14
2019-03-11T09:23:41.863Z,7.10
2019-03-11T09:26:30.654Z,6.86
2019-03-11T09:29:19.467Z,6.67
2019-03-11T09:32:08.345Z,5.54
2019-03-11T09:34:57.143Z,6.71
2019-03-11T09:37:45.961Z,7.28
2019-03-11T09:40:34.756Z,7.40
2019-03-11T09:43:23.570Z,6.96
2019-03-11T09:46:12.454Z,7.02
2019-03-11T09:49:01.248Z,7.34
2019-03-11T09:51:50.067Z,5.95
2019-03-11T09:54:38.868Z,7.95
2019-03-11T09:57:28.019Z,7.97
2019-03-11T10:00:37.727Z,7.19
2019-03-11T10:03:26.543Z,7.47
2019-03-11T10:06:15.340Z,7.49
2019-03-11T10:12:19.024Z,6.80
2019-03-11T10:15:28.745Z,7.09
2019-03-11T10:18:17.533Z,7.28
2019-03-11T10:21:06.357Z,6.95
2019-03-11T10:23:48.062Z,7.47
2019-03-11T10:26:36.906Z,5.76
2019-03-11T10:29:25.745Z,7.39
2019-03-11T10:32:14.518Z,6.03
2019-03-11T10:35:03.334Z,7.83
2019-03-11T10:37:52.136Z,6.49
2019-03-11T10:40:40.942Z,7.28
2019-03-11T10:43:29.738Z,5.58
2019-03-11T10:46:18.565Z,7.37
2019-03-11T10:49:07.359Z,7.00
2019-03-11T10:51:56.169Z,6.94
2019-03-11T10:54:45.072Z,5.14
2019-03-11T10:57:33.938Z,6.97
2019-03-11T11:03:41.591Z,7.37
2019-03-11T11:06:30.437Z,7.27
2019-03-11T11:09:19.288Z,6.84
2019-03-11T11:12:08.093Z,6.86
2019-03-11T11:14:56.956Z,7.09
2019-03-11T11:17:46.111Z,6.41
2019-03-11T11:20:34.970Z,6.86
2019-03-11T11:23:16.698Z,7.24
2019-03-11T11:26:05.582Z,7.23
2019-03-11T11:28:54.376Z,7.47
2019-03-11T11:31:43.193Z,5.70
2019-03-11T11:34:32.012Z,6.71
2019-03-11T11:37:20.804Z,7.73
2019-03-11T11:40:30.526Z,7.78
2019-03-11T11:43:19.324Z,6.92
2019-03-11T11:46:08.137Z,8.62
2019-03-11T11:48:56.964Z,7.04
2019-03-11T11:51:45.751Z,8.54
2019-03-11T11:54:34.584Z,8.68
2019-03-11T11:57:23.439Z,8.18
2019-03-11T12:00:50.598Z,8.55
2019-03-11T12:03:39.393Z,8.95
2019-03-11T12:06:28.201Z,8.86
2019-03-11T12:09:17.024Z,9.04
2019-03-11T12:12:06.176Z,8.79
2019-03-11T12:14:56.372Z,8.96
2019-03-11T12:20:52.921Z,8.39
2019-03-11T12:23:45.641Z,8.26
2019-03-11T12:29:19.830Z,8.41
2019-03-11T12:32:08.716Z,8.39
2019-03-11T12:34:57.513Z,7.87
2019-03-11T12:37:46.399Z,7.08
2019-03-11T12:40:35.196Z,8.24
2019-03-11T12:43:24.085Z,7.92
2019-03-11T12:46:12.906Z,7.62
2019-03-11T12:49:01.718Z,8.28
2019-03-11T12:51:50.609Z,8.13
2019-03-11T12:54:39.423Z,8.41
2019-03-11T12:57:47.263Z,8.28
2019-03-11T13:00:36.063Z,9.39
2019-03-11T13:03:24.873Z,9.85
2019-03-11T13:06:13.689Z,9.24
2019-03-11T13:09:02.542Z,9.01
2019-03-11T13:11:51.389Z,8.46
2019-03-11T13:14:40.180Z,7.77
2019-03-11T13:17:29.006Z,4.74
2019-03-11T13:20:38.703Z,6.74
2019-03-11T13:23:20.675Z,6.68
2019-03-11T13:26:09.514Z,7.46
2019-03-11T13:28:58.504Z,7.89
2019-03-11T13:31:47.328Z,7.42
2019-03-11T13:34:36.142Z,8.85
2019-03-11T13:37:24.943Z,8.14
2019-03-11T13:43:29.297Z,10.39
2019-03-11T13:46:18.187Z,11.01
2019-03-11T13:49:07.057Z,11.16
2019-03-11T13:51:55.880Z,10.84
2019-03-11T13:54:44.675Z,9.89
2019-03-11T13:57:33.484Z,9.65
2019-03-11T14:00:22.551Z,9.12
2019-03-11T14:03:11.370Z,7.96
2019-03-11T14:06:00.184Z,8.18
2019-03-11T14:08:48.977Z,8.43
2019-03-11T14:11:37.797Z,8.59
2019-03-11T14:14:26.596Z,8.48
2019-03-11T14:17:15.407Z,8.71
2019-03-11T14:20:25.135Z,8.61
2019-03-11T14:23:06.675Z,9.19
2019-03-11T14:25:55.459Z,9.00
2019-03-11T14:28:44.282Z,10.18
2019-03-11T14:31:33.100Z,9.95
2019-03-11T14:34:22.503Z,13.64
2019-03-11T14:37:11.319Z,13.45
2019-03-11T14:40:00.365Z,15.75
2019-03-11T14:42:50.664Z,15.43
2019-03-11T14:45:39.491Z,15.69
2019-03-11T14:48:28.297Z,15.07
2019-03-11T14:51:17.101Z,16.89
2019-03-11T14:54:05.923Z,15.28
2019-03-11T14:57:13.762Z,12.24
2019-03-11T15:00:02.576Z,12.13
2019-03-11T15:02:51.454Z,11.62
2019-03-11T15:05:40.253Z,11.45
2019-03-11T15:08:29.063Z,13.58
2019-03-11T15:11:20.307Z,11.38
2019-03-11T15:14:08.658Z,10.71
2019-03-11T15:16:57.477Z,11.55
2019-03-11T15:19:46.275Z,11.41
2019-03-11T15:22:35.092Z,10.69
2019-03-11T15:25:16.923Z,11.01
2019-03-11T15:28:05.734Z,9.09
2019-03-11T15:30:54.776Z,8.94
2019-03-11T15:33:43.586Z,8.54
2019-03-11T15:36:33.789Z,9.61
2019-03-11T15:42:03.011Z,11.05
2019-03-11T15:44:51.809Z,11.72
2019-03-11T15:47:40.620Z,9.90
2019-03-11T15:50:50.347Z,8.24
2019-03-11T15:53:39.138Z,9.12
2019-03-11T15:56:27.947Z,8.38
2019-03-11T15:59:16.744Z,8.18
2019-03-11T16:02:05.562Z,8.27
2019-03-11T16:04:54.354Z,7.99
2019-03-11T16:07:43.163Z,6.85
2019-03-11T16:10:31.956Z,7.71
2019-03-11T16:13:20.764Z,7.85
2019-03-11T16:16:09.626Z,7.92
2019-03-11T16:18:58.510Z,7.71
2019-03-11T16:21:47.312Z,7.57
2019-03-11T16:24:28.599Z,7.62
2019-03-11T16:27:17.466Z,7.34
2019-03-11T16:30:27.188Z,7.98
2019-03-11T16:33:15.980Z,8.04
2019-03-11T16:36:04.857Z,7.65
2019-03-11T16:38:53.668Z,7.49
2019-03-11T16:41:42.537Z,7.75
2019-03-11T16:44:31.419Z,7.82
2019-03-11T16:47:20.275Z,7.70
2019-03-11T16:50:28.466Z,7.52
2019-03-11T16:53:17.303Z,7.65
2019-03-11T16:56:06.239Z,7.41
2019-03-11T16:58:55.081Z,6.36
2019-03-11T17:01:44.040Z,5.97
2019-03-11T17:04:32.881Z,7.30
2019-03-11T17:07:21.761Z,7.25
2019-03-11T17:10:31.576Z,6.84
2019-03-11T17:13:20.469Z,7.04
2019-03-11T17:16:02.484Z,7.21
2019-03-11T17:18:51.313Z,7.19
2019-03-11T17:21:40.292Z,6.59
2019-03-11T17:24:29.076Z,6.86
2019-03-11T17:27:17.885Z,6.98
2019-03-11T17:30:27.895Z,6.53
2019-03-11T17:36:24.454Z,5.79
2019-03-11T17:39:13.242Z,6.66
2019-03-11T17:42:02.070Z,5.10
2019-03-11T17:44:50.887Z,7.23
2019-03-11T17:47:39.680Z,6.87
2019-03-11T17:50:28.484Z,6.76
2019-03-11T17:53:20.358Z,6.85
2019-03-11T17:56:10.197Z,6.71
2019-03-11T17:58:59.005Z,5.77
2019-03-11T18:01:47.822Z,7.07
2019-03-11T18:04:36.628Z,5.02
2019-03-11T18:07:25.445Z,7.03
2019-03-11T18:10:14.412Z,6.61
2019-03-11T18:13:03.317Z,7.01
2019-03-11T18:15:45.048Z,7.14
2019-03-11T18:18:33.869Z,6.87
2019-03-11T18:21:22.826Z,7.19
2019-03-11T18:24:11.639Z,6.57
2019-03-11T18:27:19.479Z,6.35
2019-03-11T18:30:46.967Z,6.40
2019-03-11T18:33:35.774Z,4.62
2019-03-11T18:36:24.585Z,6.29
2019-03-11T18:39:13.467Z,6.45
2019-03-11T18:42:02.272Z,5.31
2019-03-11T18:44:51.069Z,6.56
2019-03-11T18:47:39.941Z,6.04
2019-03-11T18:50:28.814Z,6.50
2019-03-11T18:53:31.759Z,6.25
2019-03-11T18:56:08.165Z,6.13
2019-03-11T18:58:56.965Z,6.27
2019-03-11T19:01:48.301Z,6.48
2019-03-11T19:04:36.267Z,6.24
2019-03-11T19:07:25.107Z,4.89
2019-03-11T19:10:34.803Z,6.48
2019-03-11T19:13:23.740Z,6.29
2019-03-11T19:16:06.831Z,6.45
2019-03-11T19:18:55.689Z,6.39
2019-03-11T19:21:44.560Z,4.70
2019-03-11T19:24:33.710Z,4.58
2019-03-11T19:27:22.526Z,6.62
2019-03-11T19:30:32.216Z,6.76
2019-03-11T19:33:21.040Z,6.34
2019-03-11T19:36:09.825Z,4.48
2019-03-11T19:38:58.905Z,6.74
2019-03-11T19:41:47.701Z,4.72
2019-03-11T19:44:36.551Z,6.61
2019-03-11T19:47:25.325Z,6.77
2019-03-11T19:50:33.493Z,6.72
2019-03-11T19:53:22.261Z,6.81
2019-03-11T19:56:11.186Z,6.41
2019-03-11T19:59:00.269Z,7.02
2019-03-11T20:01:49.109Z,6.84
2019-03-11T20:04:37.990Z,4.98
2019-03-11T20:07:26.751Z,6.87
2019-03-11T20:10:15.849Z,5.33
2019-03-11T20:16:33.103Z,6.69
2019-03-11T20:19:21.932Z,5.33
2019-03-11T20:22:10.826Z,5.60
2019-03-11T20:24:59.613Z,7.07
2019-03-11T20:27:48.465Z,7.01
2019-03-11T20:30:37.274Z,6.85
2019-03-11T20:33:26.135Z,6.78
2019-03-11T20:36:20.937Z,6.94
2019-03-11T20:39:26.820Z,6.40
2019-03-11T20:42:15.617Z,6.88
2019-03-11T20:45:25.363Z,7.04
2019-03-11T20:48:14.196Z,6.76
2019-03-11T20:51:04.689Z,5.02
2019-03-11T20:54:12.638Z,7.34
2019-03-11T20:56:54.349Z,6.90
2019-03-11T20:59:43.131Z,7.17
2019-03-11T21:02:31.939Z,6.03
2019-03-11T21:05:59.462Z,7.04
2019-03-11T21:08:48.282Z,5.57
2019-03-11T21:18:20.775Z,6.78
2019-03-11T21:21:09.589Z,6.73
2019-03-11T21:24:17.423Z,6.77
2019-03-11T21:27:06.254Z,6.68
2019-03-11T21:29:55.052Z,6.93
2019-03-11T21:32:43.943Z,6.80
2019-03-11T21:35:32.768Z,7.17
2019-03-11T21:38:23.277Z,5.43
2019-03-11T21:41:12.094Z,5.79
2019-03-11T21:44:02.662Z,6.74
2019-03-11T21:46:51.582Z,5.36
2019-03-11T21:49:40.461Z,7.10
2019-03-11T21:55:30.124Z,6.88
2019-03-11T21:58:18.999Z,5.41
2019-03-11T22:01:07.905Z,7.33
2019-03-11T22:03:56.723Z,7.30
2019-03-11T22:06:45.538Z,6.96
2019-03-11T22:09:34.338Z,5.66
2019-03-11T22:12:23.208Z,6.96
2019-03-11T22:15:31.324Z,6.69
2019-03-11T22:18:39.191Z,6.57
2019-03-11T22:21:28.035Z,5.96
2019-03-11T22:24:16.846Z,7.01
2019-03-11T22:27:05.717Z,7.10
2019-03-11T22:29:54.518Z,7.29
2019-03-11T22:32:43.333Z,7.25
2019-03-11T22:35:32.122Z,7.58
2019-03-11T22:38:20.954Z,7.63
2019-03-11T22:41:09.762Z,7.74
2019-03-11T22:43:58.560Z,7.57
2019-03-11T22:46:47.376Z,7.73
2019-03-11T22:49:36.170Z,7.88
2019-03-11T22:52:24.987Z,7.99
2019-03-11T22:58:35.416Z,8.04
2019-03-11T23:01:24.283Z,6.34
2019-03-11T23:04:13.103Z,8.02
2019-03-11T23:07:01.911Z,7.92
2019-03-11T23:09:50.705Z,7.88
2019-03-11T23:12:39.514Z,7.95
2019-03-11T23:15:28.301Z,8.03
2019-03-11T23:18:17.183Z,8.04
2019-03-11T23:21:05.990Z,8.07
2019-03-11T23:23:54.807Z,8.10
2019-03-11T23:26:43.591Z,8.24
2019-03-11T23:29:32.406Z,8.13
2019-03-11T23:32:21.197Z,7.27
2019-03-11T23:35:10.092Z,8.29
2019-03-11T23:37:58.884Z,6.63
2019-03-11T23:40:47.700Z,8.16
2019-03-11T23:46:44.252Z,8.49
2019-03-11T23:49:33.049Z,8.39
2019-03-11T23:52:14.302Z,8.35
2019-03-11T23:58:17.697Z,8.57
